Cashiers, NC

4:52 AM EDT on October 01, 2014 (GMT -0400)
Asheville Regional | Change Station
CLOSE
Current Station
Airport
Location: Asheville,
Elevation: 2169 ft
Nearby Weather Stations

Elev 2169 ft 35.43 °N, 82.54 °W | Updated 13 minutes ago

Fog
Fog
53 °F
Feels Like 53 °F
N
0
Wind Variable Wind from North

Today
High -- | Low -- °F
--% Chance of Precip.
Yesterday
High -- | Low -- °F
Precip. -- in
7:27 AM 7:16 PM
Waxing Crescent, 45% visible
Pressure 30.02 in
Visibility 2.0 miles
Clouds Scattered Clouds 200 ft
Dew Point 52 °F
Humidity 96%
Rainfall 0.00 in
Snow Depth Not available.
UV 0 out of 12
Pollen 4.40 out of 12
Ozone Good
PM2.5 Good
Flu Activity Not available.
SPECI KAVL 010839Z AUTO 00000KT 2SM R34/1600V5000FT BR SCT002 12/11 A3002 RMK AO2 VIS 1V4 T01170111

More Conditions Fewer Conditions

Pressure 30.02 in
Visibility 2.0 miles
Clouds Scattered Clouds 200 ft
Dew Point 52 °F
Humidity 96%
Rainfall 0.00 in
Snow Depth Not available.
UV 0 out of 12
Pollen 4.40 out of 12
Ozone Good
PM2.5 Good
Flu Activity Not available.
SPECI KAVL 010839Z AUTO 00000KT 2SM R34/1600V5000FT BR SCT002 12/11 A3002 RMK AO2 VIS 1V4 T01170111

More Conditions Fewer Conditions

10-Day Weather Forecast

Almanac

Astronomy

Oct. 01, 2014 Rise Set
Actual Time 7:27 AM EDT 7:16 PM EDT
Civil Twilight 7:01 AM EDT 7:41 PM EDT
Nautical Twilight 6:32 AM EDT 8:10 PM EDT
Astronomical Twilight 6:02 AM EDT 8:40 PM EDT
Moon 2:17 PM EDT No Moon Set
Length of Visible Light 12h 39m
Length of Day
11h 49m
Tomorrow will be 2m 11s shorter.
Waxing Crescent, 45% of the Moon is Illuminated
Today
Waxing Crescent
Oct 1
First Quarter
Oct 8
Full
Oct 15
Last Quarter
Oct 23
New

Today's Extremes

State Highs State Lows

Community

WunderPhotos

Upload Photos

1,757,902 photos uploaded!

Nearby

Air Quality

  Air Quality AQ Index Pollutant
Yesterday Good
OZONE
Yesterday Good
PM2.5
Current Good
PM2.5
Current Good
OZONE
Wednesday Moderate
PM2.5
Wednesday Good
OZONE
Thursday Moderate
PM2.5
Thursday Good
OZONE
Friday Good
PM2.5
Friday Good
OZONE

Snow Depth

Station Depth Elevation
No new snow has been reported.

Earthquake Activity

City Distance Mag. Time & Date
No recent earthquake activity has been reported nearby.
Minimum magnitude displayed is 2.5.

Coastal Water Temperatures

Place Temperature
No Stations Reporting

Nearby Weather Stations